Chestermere (Kirkby Field) Airport

CFX8 · Alberta, Canada

Storia di METAR CFX8 · Chestermere (Kirkby Field) Airport

Di seguito sono riportati i METAR degli ultimi giorni. Seleziona un anno per sfogliare i METAR più vecchi, dall'anno 2007 in poi.

24 maggio 2024

Tempo Codice Tempo meteorologico Temp. Vista Base nuvolosa Vento METAR/SPECI
06:23
V
4 °C 15 mi 23.000 ft 280° 280° 3 kt METAR CYYC 241223Z 28003KT 220V300 15SM FEW025TCU SCT074 BKN230 04/03 A2974 RMK TCU1AC3CI2 VIS SW 40 / VIRGA NE-E SLP097
06:00
V
4 °C 10 mi 23.000 ft 230° 230° 3 kt METAR CYYC 241200Z 23003KT 10SM -SHRA FEW029TCU SCT078 BKN230 04/03 A2974 RMK TCU2AC2CI2 VIS SW 40 SLP096
05:00
V
4 °C 8 mi 7.000 ft 130° 130° 3 kt METAR CYYC 241100Z 13003KT 100V210 8SM -SHRA SCT029TCU BKN070 04/03 A2975 RMK TCU4AC2 SLP104
04:42
V
4 °C 8 mi 3.700 ft 090° 090° 5 kt METAR CYYC 241042Z 09005KT 8SM -RA BKN037 BKN072 04/03 A2976 RMK SC5AC2 SLP108
04:00
V
3 °C 10 mi 11.000 ft 160° 160° 3 kt METAR CYYC 241000Z 16003KT 10SM FEW084 OVC110 03/02 A2976 RMK AC2AC6 VIRGA N SLP111
03:00
V
4 °C 10 mi 16.000 ft 230° 230° 4 kt METAR CYYC 240900Z 23004KT 10SM SCT110 BKN160 04/03 A2978 RMK AC4AC2 SLP110
02:54
V
3 °C 10 mi 16.000 ft 230° 230° 4 kt METAR CYYC 240854Z 23004KT 10SM SCT098 BKN160 03/01 A2978 RMK AC4AC2 SLP113
02:00
V
4 °C 10 mi 11.000 ft 200° 200° 2 kt METAR CYYC 240800Z 20002KT 10SM BKN110 BKN190 04/02 A2980 RMK AC5AS1 SLP118
01:00
V
5 °C 10 mi 11.000 ft 250° 250° 5 kt METAR CYYC 240700Z 25005KT 10SM BKN110 BKN220 05/03 A2983 RMK AC5CI1 SLP130
00:00
V
6 °C 10 mi 11.000 ft 220° 220° 4 kt METAR CYYC 240600Z 22004KT 210V270 10SM BKN110 06/03 A2985 RMK AC5 SLP134

23 maggio 2024

Tempo Codice Tempo meteorologico Temp. Vista Base nuvolosa Vento METAR/SPECI
23:00
V
6 °C 10 mi 10.000 ft 250° 250° 6 kt METAR CYYC 240500Z 25006KT 10SM FEW064 BKN100 06/03 A2988 RMK SC1AC7 SC TR SLP144
22:00
V
6 °C 8 mi 7.500 ft 260° 260° 5 kt METAR CYYC 240400Z 26005KT 8SM FEW021 BKN075 BKN230 06/03 A2989 RMK SC1AC4CI2 DIST SH SE AND N SLP153
21:42
V
6 °C 8 mi 7.000 ft 260° 260° 6 kt METAR CYYC 240342Z 26006KT 8SM FEW021 BKN070 BKN110 BKN240 06/03 A2989 RMK SC1AC4AC1CI1 CI TR DIST SH SE-S AND NW-N SLP151
21:00
V
7 °C 8 mi 7.800 ft 270° 270° 6 kt METAR CYYC 240300Z 27006KT 8SM -SHRA SCT021TCU BKN078 BKN240 07/03 A2989 RMK TCU4AC2CI1 SLP150
20:00
V
8 °C 10 mi 6.800 ft 300° 300° 4 kt METAR CYYC 240200Z 30004KT 290V350 10SM -SHRA FEW027 OVC068 08/03 A2989 RMK SC2AC6 PCPN VRY LGT / CVCTV CLD EMBD SLP149
19:16
M
9 °C 15 mi 2.400 ft 030° 030° 7 kt METAR CYYC 240116Z 03007KT 15SM -SHRA BKN024CB BKN081 BKN250 09/03 A2989 RMK CB7AC1CI1 AC TR CI TR CB ALQDS MOVG S SLP148
19:00
M
9 °C 15 mi 2.400 ft 020° 020° 8 kt METAR CYYC 240100Z 02008KT 15SM VCSH BKN024CB BKN081 BKN250 09/04 A2989 RMK CB7AC1CI1 AC TR CI TR CB ALQDS MOVG S SLP148
18:00
M
10 °C 10 mi 3.000 ft 340° 340° 4 kt METAR CYYC 240000Z 34004KT 290V090 10SM BKN030CB BKN120 BKN210 10/04 A2989 RMK CB7AC1CI1 AC TR CI TR CB ALQDS MOVG S / DIST SH W SLP146 DENSITY ALT 4000FT
17:00
V
9 °C 15 mi 4.300 ft 360° 360° 0 kt METAR CYYC 232300Z 00000KT 15SM VCSH BKN043CB BKN090 BKN250 09/04 A2990 RMK CB6AC1CI1 CI TR CB ALQDS MOVG S SLP151
16:42
V
8 °C 15 mi 5.000 ft 270° 270° 3 kt METAR CYYC 232242Z 27003KT 230V310 15SM VCSH BKN050CB BKN085 BKN250 08/04 A2991 RMK CB7AC1CI1 AC TR CI TR CB ALQDS MOVG S SLP155
16:13
M
7 °C 4 mi 2.100 ft 320° 320° 13 kt METAR CYYC 232213Z 32013KT 310V020 4SM -SHRA OVC021CB 07/04 A2991 RMK CB8 CB ALQDS MOVG S SLP157
16:00
M
7 °C 6 mi 3.000 ft 350° 350° 14 - 24 kt METAR CYYC 232200Z 35014G24KT 6SM -SHRAGR OVC030CB 07/03 A2991 RMK CB8 VIS LWR W / CB ALQDS MOVG S / HAIL DIAM 4MM SLP157
15:55
M
9 °C 6 mi 2.500 ft 360° 360° 16 - 24 kt METAR CYYC 232155Z 36016G24KT 310V080 6SM -SHRAGR OVC025CB 09/04 A2990 RMK CB8 CB ALQDS MOVG S / HAIL DIAM 04 MM SLP151
15:39
V
10 °C 15 mi 3.800 ft 060° 060° 8 kt METAR CYYC 232139Z 06008KT 040V110 15SM -SHRA BKN038CB BKN180 10/03 A2989 RMK CB7AC1 AC TR CB ALQDS MOVG S SLP147 DENSITY ALT 3900FT
15:00
V
11 °C 15 mi 9.300 ft Var Var 2 kt METAR CYYC 232100Z VRB02KT 15SM VCSH SCT063CB BKN093 BKN180 11/03 A2989 RMK CB4AC2AC1 CB ALQDS MOVG S SLP146 DENSITY ALT 4000FT
14:40
V
9 °C 15 mi 6.300 ft 240° 240° 3 kt METAR CYYC 232040Z 24003KT 230V320 15SM VCSH BKN063CB BKN093 BKN250 09/02 A2990 RMK CB6AC1CI1 CI TR CB ALQDS MOVG S SLP150
14:00
M
10 °C 15 mi 3.000 ft 310° 310° 10 kt METAR CYYC 232000Z 31010KT 15SM -SHRA BKN030CB BKN085 10/02 A2990 RMK CB7AC1 AC TR CB ALQDS MOVG S SLP148 DENSITY ALT 3900FT
13:00
M
9 °C 15 mi 2.500 ft 320° 320° 5 kt METAR CYYC 231900Z 32005KT 290V010 15SM VCSH BKN025CB BKN075 BKN250 09/03 A2991 RMK CB6AC1CI1 CI TR CB ALQDS MOVG S SLP155
12:27
M
9 °C 15 mi 2.800 ft 360° 360° 15 kt METAR CYYC 231827Z 36015KT 280V030 15SM -SHRA BKN028TCU BKN100 09/03 A2992 RMK TCU7AC1 AC TR SLP155
12:00
M
9 °C 15 mi 2.200 ft 320° 320° 5 - 15 kt METAR CYYC 231800Z 32005G15KT 240V010 15SM BKN022TCU BKN047 BKN100 09/03 A2992 RMK TCU6SC1AC1 AC TR SH SE AND NW-N SLP157
11:00
V
8 °C 15 mi 3.900 ft 330° 330° 6 kt METAR CYYC 231700Z 33006KT 15SM SCT020 BKN039 BKN100 08/04 A2993 RMK SC3SC4AC1 AC TR TCU ASOCTD / SH NE SLP162
10:24
V
7 °C 15 mi 5.500 ft 310° 310° 8 kt METAR CYYC 231624Z 31008KT 15SM SCT027 BKN055 07/04 A2994 RMK SC3SC4 SH E-SW SLP166
10:00
V
6 °C 6 mi 7.600 ft 310° 310° 9 kt METAR CYYC 231600Z 31009KT 6SM -RA BR SCT027 BKN076 06/04 A2994 RMK SC4AC3 SLP167
09:00
M
7 °C 15 mi 1.400 ft 330° 330° 11 kt METAR CYYC 231500Z 33011KT 15SM -RA OVC014 07/04 A2994 RMK SC8 SLP165
08:25
M
7 °C 15 mi 1.500 ft 350° 350° 12 kt METAR CYYC 231425Z 35012KT 15SM -RA BKN015 BKN025 OVC072 07/04 A2993 RMK SC5SC2AC1 SLP163
08:00
V
7 °C 15 mi 5.900 ft 340° 340° 9 kt METAR CYYC 231400Z 34009KT 15SM FEW030 BKN059 OVC072 07/03 A2993 RMK SC1SC4AC3 SLP163
07:00
V
6 °C 20 mi 7.800 ft 330° 330° 9 kt METAR CYYC 231300Z 33009KT 20SM FEW013 SCT034 BKN078 OVC170 06/03 A2993 RMK SF1SC3AC3AC2 SF TR SLP161
06:00
V
6 °C 20 mi 3.500 ft 340° 340° 7 kt METAR CYYC 231200Z 34007KT 20SM FEW019 BKN035 BKN097 06/03 A2993 RMK SC1SC5AC2 SC TR SLP160
05:00
M
6 °C 15 mi 2.100 ft 310° 310° 6 kt METAR CYYC 231100Z 31006KT 15SM BKN021 06/04 A2993 RMK SC7 SLP162
04:00
V
6 °C 15 mi 5.800 ft 310° 310° 5 kt METAR CYYC 231000Z 31005KT 15SM FEW026 BKN058 06/04 A2994 RMK SC2SC5 SLP166
03:00
V
6 °C 15 mi 4.700 ft 330° 330° 4 kt METAR CYYC 230900Z 33004KT 15SM FEW034 BKN047 06/04 A2995 RMK SC1SC6 INTMT -RA SLP171
02:46
V
6 °C 10 mi 3.200 ft 340° 340° 5 kt METAR CYYC 230846Z 34005KT 10SM -RA BKN032 OVC056 06/04 A2995 RMK SC7SC1 PCPN VRY LGT/ -RA INTMT SLP172
02:14
V
6 °C 8 mi 4.500 ft 340° 340° 5 kt METAR CYYC 230814Z 34005KT 8SM VCSH BKN045 BKN089 06/04 A2995 RMK SC5AC2 PCPN E-SW SLP171
02:00
V
6 °C 8 mi 4.200 ft 330° 330° 10 kt METAR CYYC 230800Z 33010KT 8SM -RA BKN042 OVC078 06/03 A2995 RMK SC6AC2 SLP171
01:00
V
6 °C 15 mi 7.200 ft 340° 340° 6 kt METAR CYYC 230700Z 34006KT 15SM SCT031 BKN072 06/04 A2996 RMK SC3AC3 SLP172
00:00
V
7 °C 15 mi 4.600 ft 330° 330° 4 kt METAR CYYC 230600Z 33004KT 15SM SCT027 BKN046 07/03 A2996 RMK SC3SC3 SLP175

22 maggio 2024

Tempo Codice Tempo meteorologico Temp. Vista Base nuvolosa Vento METAR/SPECI
23:00
V
7 °C 15 mi 5.400 ft Var Var 2 kt METAR CYYC 230500Z VRB02KT 15SM VCSH BKN054 BKN093 07/03 A2996 RMK SC6AC1 SH SE/TCU ASOCTD SE SLP173
22:00
V
7 °C 15 mi 8.400 ft 050° 050° 7 kt METAR CYYC 230400Z 05007KT 15SM VCSH FEW013 SCT027CB BKN084 07/03 A2995 RMK SF1CB3AC4 SF TR SH NE-SE/CB NE-SE MOVG S SLP174
21:00
V
8 °C 10 mi 8.600 ft 330° 330° 7 kt METAR CYYC 230300Z 33007KT 10SM VCSH SCT033CB BKN086 08/03 A2994 RMK CB3AC4 SH NE/CB NE MOVG S SLP166
20:00
V
9 °C 10 mi 8.400 ft 330° 330° 8 kt METAR CYYC 230200Z 33008KT 10SM VCSH FEW041CB BKN084 09/03 A2992 RMK CB2AC5 SH SW/CB S-SW MOVG S SLP161
19:00
V
10 °C 10 mi 3.800 ft Var Var 2 kt METAR CYYC 230100Z VRB02KT 10SM BKN038CB BKN071 10/03 A2991 RMK CB5AC2 CB S-N MOVG S SLP154 DENSITY ALT 3900FT
18:00
V
10 °C 15 mi 3.700 ft 020° 020° 3 kt METAR CYYC 230000Z 02003KT 360V060 15SM BKN037TCU BKN075 10/03 A2990 RMK TCU6AC1 DIST SH W-NW SLP150 DENSITY ALT 3900FT
17:00
V
10 °C 15 mi 3.300 ft Var Var 3 kt METAR CYYC 222300Z VRB03KT 15SM BKN033 BKN067 10/03 A2990 RMK SC5AC2 TCU ASOCTD / DIST SH SE AND NW SLP149 DENSITY ALT 3900FT
16:00
V
9 °C 15 mi 6.800 ft 070° 070° 3 kt METAR CYYC 222200Z 07003KT 040V130 15SM FEW024 SCT036 BKN068 09/03 A2990 RMK SF1SC3AC4 SF TR TCU ASOCTD / DIST SH SW SLP151
15:15
V
8 °C 9 mi 3.400 ft 080° 080° 3 kt METAR CYYC 222115Z 08003KT 060V140 9SM BKN034TCU BKN072 08/04 A2990 RMK TCU5AC2 DIST SH SE-W SLP151
15:00
M
7 °C 15 mi 2.400 ft 120° 120° 5 kt METAR CYYC 222100Z 12005KT 15SM -SHRA BKN024TCU BKN070 07/04 A2990 RMK TCU6AC1 SLP154
14:28
M
7 °C 15 mi 2.200 ft 100° 100° 13 - 19 kt METAR CYYC 222028Z 10013G19KT 15SM -SHRA OVC022 07/04 A2990 RMK SC8 CVCTV CLD EMBD SLP153
14:00
M
8 °C 15 mi 1.900 ft 100° 100° 6 kt METAR CYYC 222000Z 10006KT 15SM VCSH BKN019 OVC050 08/04 A2989 RMK SC7SC1 SLP146
13:40
M
8 °C 15 mi 2.300 ft 080° 080° 9 kt METAR CYYC 221940Z 08009KT 15SM VCSH BKN023 OVC049 08/04 A2988 RMK SC6SC2 SLP145
13:00
M
8 °C 15 mi 2.200 ft 090° 090° 12 kt METAR CYYC 221900Z 09012KT 15SM -SHRA OVC022 08/03 A2987 RMK SC8 CVCTV CLD EMBD SLP139
12:38
M
9 °C 15 mi 2.500 ft 080° 080° 9 kt METAR CYYC 221838Z 08009KT 15SM -SHRA BKN025 OVC053 09/04 A2986 RMK SC7SC1 CVCTV CLD EMBD / PCPN VRY LGT SLP137
12:12
V
8 °C 10 mi 5.000 ft 080° 080° 5 kt METAR CYYC 221812Z 08005KT 10SM BKN050 OVC074 08/04 A2986 RMK SC5AC3 SLP137
12:00
M
7 °C 15 mi 2.000 ft 070° 070° 7 kt METAR CYYC 221800Z 07007KT 15SM -RA BKN020 OVC074 07/04 A2986 RMK SC5AC3 -RA INTMT / PCPN VRY LGT SLP137
11:26
M
7 °C 15 mi 1.400 ft 090° 090° 10 kt METAR CYYC 221726Z 09010KT 15SM BKN014 OVC030 07/04 A2985 RMK SC7SC1 SLP134
11:13
M
7 °C 10 mi 1.300 ft 070° 070° 10 kt METAR CYYC 221713Z 07010KT 10SM -RA BKN013 OVC032 07/05 A2985 RMK SC7SC1 PCPN VRY LGT SLP134
11:00
M
7 °C 10 mi 1.400 ft 080° 080° 10 kt METAR CYYC 221700Z 08010KT 050V110 10SM OVC014 07/04 A2984 RMK SC8 SLP133
10:41
M
6 °C 10 mi 1.100 ft 120° 120° 10 kt METAR CYYC 221641Z 12010KT 10SM OVC011 06/05 A2984 RMK SC8 SLP131
10:00
M
6 °C 6 mi 1.100 ft 070° 070° 11 - 17 kt METAR CYYC 221600Z 07011G17KT 6SM -RA BR BKN011 OVC030 06/05 A2983 RMK SC7SC1 SLP128
09:00
I
6 °C 6 mi 700 ft 070° 070° 10 kt METAR CYYC 221500Z 07010KT 6SM -RA BR BKN007 OVC013 06/05 A2980 RMK SC7SC1 SLP117
08:12
M
6 °C 4 mi 3.700 ft 090° 090° 8 kt METAR CYYC 221412Z 09008KT 4SM -RA BR SCT007 SCT022 OVC037 06/05 A2978 RMK SF3SC2SC3 SLP108
08:00
I
6 °C 2½ mi 500 ft 080° 080° 9 kt METAR CYYC 221400Z 08009KT 2 1/2SM -RA BR BKN005 OVC020 06/05 A2978 RMK ST7ST1 SLP107
07:46
I
6 °C 2½ mi 500 ft 080° 080° 8 kt METAR CYYC 221346Z 08008KT 2 1/2SM -RA BR BKN005 OVC034 06/05 A2977 RMK ST7ST1 SLP104
07:00
M
6 °C 5 mi 2.900 ft 070° 070° 9 kt METAR CYYC 221300Z 07009KT 5SM -RA BR SCT007 OVC029 06/05 A2976 RMK SF3SC5 SLP099
06:26
V
6 °C 10 mi 3.200 ft 080° 080° 9 kt METAR CYYC 221226Z 08009KT 10SM -RA FEW007 BKN032 06/05 A2975 RMK SF1SC7 SLP095
06:00
M
6 °C 10 mi 2.500 ft 080° 080° 8 kt METAR CYYC 221200Z 08008KT 10SM FEW008 OVC025 06/05 A2975 RMK SF1SC7 SLP093
05:00
M
6 °C 6 mi 2.100 ft 100° 100° 8 kt METAR CYYC 221100Z 10008KT 6SM BR FEW005 BKN021 OVC047 06/05 A2975 RMK SF1SC6SC1 SLP094
04:10
M
6 °C 5 mi 2.100 ft 090° 090° 7 kt METAR CYYC 221010Z 09007KT 5SM BR FEW005 BKN021 BKN044 06/06 A2975 RMK SF2SC5SC1 SLP093
04:00
M
6 °C 6 mi 2.100 ft 090° 090° 6 kt METAR CYYC 221000Z 09006KT 6SM -RA BR FEW006 BKN021 OVC039 06/06 A2975 RMK SF2SC5SC1 PCPN VRY LGT SLP093
03:29
M
6 °C 6 mi 2.100 ft 090° 090° 6 kt METAR CYYC 220929Z 09006KT 6SM -RA BR SCT005 BKN021 OVC043 06/06 A2975 RMK SF3SC4SC1 PCPN VRY LGT SLP094
03:00
M
7 °C 7 mi 2.100 ft 090° 090° 6 kt METAR CYYC 220900Z 09006KT 7SM SCT009 BKN021 OVC042 07/06 A2976 RMK SF3SC3SC2 SLP095
02:28
V
7 °C 8 mi 4.100 ft 110° 110° 6 kt METAR CYYC 220828Z 11006KT 8SM FEW009 SCT026 OVC041 07/06 A2975 RMK SF1SC2SC5 SLP093
02:00
V
7 °C 8 mi 4.500 ft 120° 120° 5 kt METAR CYYC 220800Z 12005KT 8SM FEW013 BKN045 OVC094 07/06 A2975 RMK SC2SC5AC1 INTMT -RA SLP094
01:00
V
7 °C 9 mi 5.600 ft 100° 100° 7 kt METAR CYYC 220700Z 10007KT 9SM -RA FEW018 BKN056 OVC094 07/06 A2976 RMK SC2SC3AC3 PCPN VRY LGT SLP096
00:37
V
7 °C 8 mi 4.300 ft 100° 100° 5 kt METAR CYYC 220637Z 10005KT 8SM -RA SCT018 OVC043 07/06 A2976 RMK SC3SC5 PCPN VRY LGT SLP098
00:00
V
7 °C 15 mi 9.100 ft 030° 030° 6 kt METAR CYYC 220600Z 03006KT 15SM BKN091 07/06 A2976 RMK AC7 SLP094
Segnala modifiche